logo
App data

Alien Shooter: Revisited

Crowds of blood-thirsty monsters, crawling from every corner of the secret research base. Gloomy basements and modern labs, darkness changing into blazing bulbs. The only usual thing is: you're in a bad place alone, and there's no one to help you!
Store | Hub | SteamDB | Site
Developer: Sigma Team Inc. Publisher: Sigma Team Inc.
Genre: Action, Indie, RPG
Languages: English, Russian
Tags: Action (31), RPG (28), Indie (25), Shooter (19), Isometric (13), Singleplayer (12), Top-Down Shooter (9), Aliens (8)
Category: Single-player, Steam Trading Cards
Release date: Apr 15, 2009
Price: $4.99
Old userscore: 66% Owners: 200,000 .. 500,000
Followers: 722
Peak concurrent players yesterday: 8
YouTube stats: 1 views and 0 comments for top 50 videos uploaded last week, 0 new videos uploaded yesterday.
Playtime total: 01:38 (average) 02:14 (median)

Steam Spy is still in beta, so expect major bugs.

Owners data:

Access restricted.

This feature is only available to users with special access rights. Sorry.

If you want to proceed, you need to register or log in first and then back Steam Spy on Patreon. Look for Indie or Pro pledge.

Don't forget to use the same email as on Steam Spy!

If you've recently backed Steam Spy on Patreon, please note, that it might take around 15 minutes for your access rights to sync. In most cases you'll need to re-login on Steam Spy too.

Audience in 2 weeks:

Access restricted.

This feature is only available to users with special access rights. Sorry.

If you want to proceed, you need to register or log in first and then back Steam Spy on Patreon. Look for Indie or Pro pledge.

Don't forget to use the same email as on Steam Spy!

If you've recently backed Steam Spy on Patreon, please note, that it might take around 15 minutes for your access rights to sync. In most cases you'll need to re-login on Steam Spy too.

Peak daily concurrent players:

CCU data courtesy of SteamDB. Used with permission.

Hourly concurrent players:

Followers over time

Access restricted.

This feature is only available to users with special access rights. Sorry.

If you want to proceed, you need to register or log in first and then back Steam Spy on Patreon. Look for Indie or Pro pledge.

Don't forget to use the same email as on Steam Spy!

If you've recently backed Steam Spy on Patreon, please note, that it might take around 15 minutes for your access rights to sync. In most cases you'll need to re-login on Steam Spy too.

Views for top 50 videos on YouTube for this game:

Games similar to this one:

# Game Release date
Price
Score rank
(Userscore / Metascore)
Owners
Players
Playtime (Median)
1 The Ship: Single Player Nov 20, 2006 $9.99N/A (N/A)200,000 .. 500,0000%00:00 (00:00)
2 Alpha Prime Nov 7, 2007 $4.99N/A (N/A/59%)200,000 .. 500,0000%00:00 (00:00)
3 Painkiller Overdose Oct 30, 2007 $4.99N/A (N/A/65%)100,000 .. 200,0000%00:00 (00:00)
4 Judge Dredd: Dredd vs. Death Mar 26, 2009 $7.99N/A (N/A/55%)50,000 .. 100,0000%00:00 (00:00)
5 Project: Snowblind Mar 29, 2007 $5.99N/A (N/A/76%)100,000 .. 200,0000%00:00 (00:00)
6 Conflict: Denied Ops Feb 8, 2008 $5.99N/A (N/A/58%)100,000 .. 200,0000%00:00 (00:00)
7 QUAKE Mission Pack 1: Scourge of Armagon Feb 28, 1997 N/AN/A (N/A)50,000 .. 100,0000%00:00 (00:00)
8 Frontlines: Fuel of War Feb 29, 2008 $19.99N/A (N/A/73%)200,000 .. 500,0000%00:00 (00:00)
9 TimeShift Oct 30, 2007 $19.99N/A (N/A/71%)100,000 .. 200,0000%00:00 (00:00)
10 The Club Feb 20, 2008 $14.99N/A (N/A/67%)20,000 .. 50,0000%00:00 (00:00)
11 Larva Mortus Mar 19, 2009 $2.99N/A (N/A/64%)100,000 .. 200,0000%00:00 (00:00)
12 Unreal 2: The Awakening Mar 17, 2008 $14.99N/A (N/A/75%)200,000 .. 500,0000%00:00 (00:00)
13 Prince of Persia: Warrior Within Nov 21, 2008 $9.99N/A (N/A/83%)200,000 .. 500,0000%00:00 (00:00)
14 Prince of Persia: The Two Thrones Nov 21, 2008 $9.99N/A (N/A/85%)200,000 .. 500,0000%00:00 (00:00)
15 Tom Clancy's Rainbow Six Vegas Apr 9, 2008 $9.99N/A (N/A/85%)100,000 .. 200,0000%00:00 (00:00)
16 Tom Clancy's Ghost Recon Desert Siege Jul 15, 2008 $4.99N/A (N/A/82%)50,000 .. 100,0000%00:00 (00:00)
17 Tom Clancy's Rainbow Six Lockdown May 13, 2008 $9.99N/A (N/A/59%)100,000 .. 200,0000%00:00 (00:00)
18 Rayman Raving Rabbids Jun 13, 2008 $9.99N/A (N/A/58%)50,000 .. 100,0000%00:00 (00:00)
19 Legendary Dec 1, 2008 $0.99N/A (N/A/50%)200,000 .. 500,0000%00:00 (00:00)
20 Rocket Knight May 11, 2010 $14.99N/A (N/A/63%)0 .. 20,0000%00:00 (00:00)
21 Prince of Persia Dec 10, 2008 $9.99N/A (N/A/82%)200,000 .. 500,0000%00:00 (00:00)
22 Watchmen: The End is Nigh Mar 4, 2009 $4.99N/A (N/A/61%)20,000 .. 50,0000%00:00 (00:00)
23 Watchmen: The End is Nigh Part 2 Jul 29, 2009 $4.99N/A (N/A/44%)20,000 .. 50,0000%00:00 (00:00)
24 Bionic Commando Jul 28, 2009 $9.99N/A (N/A/69%)200,000 .. 500,0000%00:00 (00:00)
25 Bionic Commando: Rearmed Jul 28, 2009 $9.99N/A (N/A/86%)200,000 .. 500,0000%00:00 (00:00)
26 Alien Breed: Impact Jun 3, 2010 $9.99N/A (N/A/64%)200,000 .. 500,0001.89%00:04 (00:01)
27 Alien Breed 2: Assault Sep 22, 2010 $9.99N/A (N/A/63%)500,000 .. 1,000,0000%00:00 (00:00)
28 Drug Wars Mar 17, 2009 $4.99N/A (N/A/35%)0 .. 20,0000%00:00 (00:00)
29 Blacklight: Tango Down Jul 14, 2010 N/AN/A (N/A/65%)50,000 .. 100,0000%00:00 (00:00)
30 Twin Sector Sep 16, 2009 $4.99N/A (N/A)50,000 .. 100,0000%00:00 (00:00)
31 Booster Trooper Apr 23, 2010 $1.99N/A (N/A)50,000 .. 100,0000%00:00 (00:00)
32 Dead Horde Jul 27, 2011 $5.99N/A (N/A)50,000 .. 100,0000%00:00 (00:00)
33 Sam & Max 301: The Penal Zone May 1, 1986 $9.99N/A (N/A)100,000 .. 200,0000%00:00 (00:00)
34 Iron Grip: Warlord Dec 5, 2008 N/AN/A (N/A/59%)100,000 .. 200,0000%00:00 (00:00)
35 Delta Force Xtreme 2 Jun 18, 2009 $19.99N/A (N/A)20,000 .. 50,0000%00:00 (00:00)
36 Delta Force Land Warrior Jun 18, 2009 $9.99N/A (N/A/74%)50,000 .. 100,0000%00:00 (00:00)
37 Delta Force: Task Force Dagger Jun 18, 2009 $9.99N/A (N/A/51%)20,000 .. 50,0000%00:00 (00:00)
38 Delta Force: Black Hawk Down Jun 18, 2009 $14.99N/A (N/A/77%)100,000 .. 200,0000%00:00 (00:00)
39 Comanche 4 Jun 18, 2009 $9.99N/A (N/A/74%)50,000 .. 100,0000%00:00 (00:00)
40 Alien Shooter May 27, 2009 $4.99N/A (N/A)200,000 .. 500,0000%00:00 (00:00)
41 Zombie Shooter May 27, 2009 $4.99N/A (N/A)200,000 .. 500,0000%00:00 (00:00)
42 Zombie Shooter 2 Nov 18, 2009 $9.99N/A (N/A)100,000 .. 200,0000%00:00 (00:00)
43 SEGA Mega Drive and Genesis Classics Jun 1, 2010 $24.79N/A (N/A)1,000,000 .. 2,000,0000%00:00 (00:00)
44 Project Freedom Oct 14, 2009 $2.99N/A (N/A)20,000 .. 50,0000%00:00 (00:00)
45 Foreign Legion: Buckets of Blood Aug 4, 2009 $3.99N/A (N/A)100,000 .. 200,0000%00:00 (00:00)
46 Kingpin — Life of Crime Aug 19, 2009 $9.99N/A (N/A)20,000 .. 50,0000%00:00 (00:00)
47 MDK Sep 17, 2009 $9.99N/A (N/A)20,000 .. 50,0000%00:00 (00:00)
48 MDK 2 Sep 17, 2009 $9.99N/A (N/A/83%)20,000 .. 50,0000%00:00 (00:00)
49 Painkiller: Resurrection Oct 27, 2009 $9.99N/A (N/A/38%)100,000 .. 200,0000%00:00 (00:00)
50 AquaNox Apr 20, 2010 $4.99N/A (N/A/67%)100,000 .. 200,0000%00:00 (00:00)
51 AquaNox 2: Revelation Apr 20, 2010 $4.99N/A (N/A/59%)50,000 .. 100,0000%00:00 (00:00)
52 Chaser Jul 16, 2010 $4.99N/A (N/A/66%)100,000 .. 200,0000%00:00 (00:00)
53 Coniclysm Mar 26, 2010 $4.99N/A (N/A)0 .. 20,0000%00:00 (00:00)
54 DogFighter Jun 14, 2010 $0.99N/A (N/A)100,000 .. 200,0000%00:00 (00:00)
55 Wasteland Angel Sep 1, 2011 $4.99N/A (N/A)50,000 .. 100,0000%00:00 (00:00)
56 Plain Sight Apr 5, 2010 $4.99N/A (N/A/76%)50,000 .. 100,0000%00:00 (00:00)
57 The First Templar - Steam Special Edition May 12, 2011 $9.99N/A (N/A/57%)100,000 .. 200,0000%00:00 (00:00)
58 Painkiller Redemption Feb 25, 2011 $4.99N/A (N/A/43%)200,000 .. 500,0000%00:00 (00:00)
59 Xotic Sep 16, 2011 $9.99N/A (N/A/67%)50,000 .. 100,0000%00:00 (00:00)
60 Shadow Harvest: Phantom Ops Apr 5, 2011 $9.99N/A (N/A/34%)20,000 .. 50,0000%00:00 (00:00)
61 Capsized Apr 29, 2011 $9.99N/A (N/A/80%)200,000 .. 500,0000%00:00 (00:00)
62 Garshasp: The Monster Slayer May 9, 2011 $4.99N/A (N/A/49%)50,000 .. 100,0000%00:00 (00:00)
63 Garshasp: Temple of the Dragon Sep 24, 2012 $4.99N/A (N/A)20,000 .. 50,0000%00:00 (00:00)
64 Warp Mar 21, 2012 $9.99N/A (N/A)50,000 .. 100,0000%00:00 (00:00)
65 Alien Zombie Megadeath Oct 18, 2011 $4.99N/A (N/A)20,000 .. 50,0000%00:00 (00:00)
66 Bunch of Heroes Sep 21, 2011 $4.99N/A (N/A)100,000 .. 200,0000%00:00 (00:00)
67 Serious Sam Double D XXL Aug 30, 2011 $9.99N/A (N/A)200,000 .. 500,0000%00:00 (00:00)
68 Global Ops: Commando Libya Oct 26, 2011 $4.99N/A (N/A/37%)50,000 .. 100,0000%00:00 (00:00)
69 Choplifter HD Jan 11, 2012 N/AN/A (N/A/65%)50,000 .. 100,0000%00:00 (00:00)
70 Scary Girl Apr 9, 2012 $6.99N/A (N/A)20,000 .. 50,0000%00:00 (00:00)
71 Sonic the Hedgehog 4 - Episode II May 15, 2012 $9.99N/A (N/A/54%)100,000 .. 200,0000%00:00 (00:00)
72 Deep Black: Reloaded Apr 18, 2012 $29.99N/A (N/A/39%)20,000 .. 50,0000%00:00 (00:00)
73 Foreign Legion: Multi Massacre Jul 9, 2012 $4.99N/A (N/A)50,000 .. 100,0000%00:00 (00:00)
74 Painkiller: Recurring Evil Feb 29, 2012 $9.99N/A (N/A/38%)100,000 .. 200,0000%00:00 (00:00)
75 Noitu Love 2: Devolution Apr 23, 2012 $4.99N/A (N/A/80%)20,000 .. 50,0000%00:00 (00:00)
76 Sacred Citadel Apr 16, 2013 $9.99N/A (N/A/61%)500,000 .. 1,000,0000%00:00 (00:00)
77 Blades of Time Apr 20, 2012 $9.99N/A (N/A/63%)200,000 .. 500,0000%00:00 (00:00)
78 Primal Fears Jan 8, 2013 $9.99N/A (N/A)50,000 .. 100,0000%00:00 (00:00)
79 Kung Fu Strike - The Warrior's Rise Jul 24, 2012 $9.99N/A (N/A)100,000 .. 200,0000%00:00 (00:00)
80 Inversion Jul 26, 2012 $9.99N/A (N/A)20,000 .. 50,0000%00:00 (00:00)
81 MDK2 HD Jul 30, 2012 $14.99N/A (N/A/73%)0 .. 20,0000%00:00 (00:00)
82 Intrusion 2 Sep 11, 2012 $9.99N/A (N/A/80%)200,000 .. 500,0000%00:00 (00:00)
83 Karateka Dec 3, 2012 $3.99N/A (N/A/48%)100,000 .. 200,0000%00:00 (00:00)
84 iBomber Attack Nov 1, 2012 $5.99N/A (N/A)20,000 .. 50,0000%00:00 (00:00)
85 NiGHTS Into Dreams Dec 17, 2012 $7.99N/A (N/A)200,000 .. 500,0000%00:00 (00:00)
86 Miner Wars 2081 Nov 28, 2012 $4.99N/A (N/A/52%)50,000 .. 100,0000%00:00 (00:00)
87 LocoCycle Feb 14, 2014 $9.99N/A (N/A)20,000 .. 50,0000%00:00 (00:00)
88 Dragon's Lair Jun 19, 1983 $9.99N/A (N/A)50,000 .. 100,0000%00:00 (00:00)
89 Thunder Wolves May 15, 2013 $9.99N/A (N/A/69%)50,000 .. 100,0000%00:00 (00:00)
90 Strike Suit Infinity Apr 30, 2013 $6.99N/A (N/A/66%)100,000 .. 200,0000%00:00 (00:00)
91 The Apogee Throwback Pack Jul 1, 2013 $9.99N/A (N/A)200,000 .. 500,0000%00:00 (00:00)
92 Guncraft Aug 9, 2013 $14.99N/A (N/A/73%)100,000 .. 200,0000%00:00 (00:00)
93 Kill to Collect Apr 6, 2016 $9.99N/A (N/A/57%)20,000 .. 50,0000%00:00 (00:00)
94 The Chaos Engine Aug 29, 2013 $9.99N/A (N/A/40%)100,000 .. 200,0000%00:00 (00:00)
95 Blood Omen 2: Legacy of Kain Sep 24, 2013 $6.99N/A (N/A)200,000 .. 500,0000%00:00 (00:00)
96 Disney Epic Mickey 2: The Power of Two Oct 6, 2014 $19.99N/A (N/A)50,000 .. 100,0000%00:00 (00:00)
97 Strike Vector Jan 28, 2014 N/AN/A (N/A/73%)100,000 .. 200,0000%00:00 (00:00)
98 Shadow Man Mar 9, 1999 N/AN/A (N/A)50,000 .. 100,0000%00:00 (00:00)
99 YAIBA: NINJA GAIDEN Z Mar 21, 2014 $29.99N/A (N/A)50,000 .. 100,0000%00:00 (00:00)
100 Hot Tin Roof: The Cat That Wore A Fedora Feb 20, 2015 $14.99N/A (N/A/66%)100,000 .. 200,0000%00:00 (00:00)
101 Alone in the Dark (2008) Oct 29, 2013 $9.99N/A (N/A/55%)50,000 .. 100,0000%00:00 (00:00)
102 Cold War Jan 8, 2014 $4.99N/A (N/A/64%)20,000 .. 50,0000%00:00 (00:00)
103 Aces Wild: Manic Brawling Action! Jan 31, 2014 $9.99N/A (N/A)50,000 .. 100,0000%00:00 (00:00)
104 Alone in the Dark: Illumination Jun 11, 2015 $19.99N/A (N/A)50,000 .. 100,0000%00:00 (00:00)
105 Tango Fiesta – 80’s Action Film meets 2D Top Down Multiplayer Co-Op Roguelike Military Shooter Sep 24, 2015 $9.99N/A (N/A)20,000 .. 50,0000%00:00 (00:00)
106 JUDGEMENT SILVERSWORD - Resurrection - Sep 18, 2015 $4.99N/A (N/A)0 .. 20,0000%00:00 (00:00)
107 GIGANTIC ARMY Mar 6, 2014 $5.99N/A (N/A)50,000 .. 100,0000%00:00 (00:00)
108 Eterium Apr 15, 2014 N/AN/A (N/A)50,000 .. 100,0000%00:00 (00:00)
109 Ubersoldier II Jul 22, 2008 $9.99N/A (N/A/62%)100,000 .. 200,0000%00:00 (00:00)
110 Explodemon Nov 3, 2011 $8.99N/A (N/A)20,000 .. 50,0000%00:00 (00:00)
111 Project Root May 1, 2014 $9.99N/A (N/A)20,000 .. 50,0000%00:00 (00:00)
112 Shadow Ops: Red Mercury Jul 2, 2014 $6.99N/A (N/A/61%)50,000 .. 100,0000%00:00 (00:00)
113 El Matador Sep 25, 2006 $3.99N/A (N/A/54%)50,000 .. 100,0000%00:00 (00:00)
114 Putt-Putt Saves The Zoo Jul 3, 2014 $6.99N/A (N/A)20,000 .. 50,0000%00:00 (00:00)
115 Beyond Space Remastered Edition Jun 16, 2014 N/AN/A (N/A)20,000 .. 50,0000%00:00 (00:00)
116 Super Rad Raygun Nov 8, 2016 N/AN/A (N/A/64%)0 .. 20,0000%00:00 (00:00)
117 Blood II: The Chosen + Expansion Oct 31, 1998 $4.99N/A (N/A/72%)20,000 .. 50,0000%00:00 (00:00)
118 Chernobyl Commando Mar 8, 2013 N/AN/A (N/A)50,000 .. 100,0000%00:00 (00:00)
119 Manhunter Jan 29, 2013 N/AN/A (N/A)100,000 .. 200,0000%00:00 (00:00)
120 The Way May 20, 2016 $1.49N/A (N/A/67%)100,000 .. 200,0000%00:00 (00:00)
121 The Stalin Subway: Red Veil Oct 5, 2006 $2.99N/A (N/A)100,000 .. 200,0000%00:00 (00:00)
122 OCEAN CITY RACING Nov 14, 2014 $1.99N/A (N/A)50,000 .. 100,0000%00:00 (00:00)
123 Vertical Drop Heroes HD Jul 25, 2014 $6.99N/A (N/A/70%)100,000 .. 200,0000%00:00 (00:00)
124 Bird Assassin Aug 27, 2014 $1.99N/A (N/A)0 .. 20,0000%00:00 (00:00)
125 Disney G-Force Oct 6, 2014 $19.99N/A (N/A/61%)0 .. 20,0000%00:00 (00:00)
126 Raiden IV: OverKill Sep 3, 2015 N/AN/A (N/A)50,000 .. 100,0000%00:00 (00:00)
127 Cinemaware Anthology: 1986-1991 Nov 14, 2014 $9.99N/A (N/A)20,000 .. 50,0000%00:00 (00:00)
128 Hail to the King: Deathbat Oct 30, 2014 $5.99N/A (N/A)0 .. 20,0000%00:00 (00:00)
129 Redline Oct 23, 2014 $6.99N/A (N/A)20,000 .. 50,0000%00:00 (00:00)
130 Deer Hunt Legends Jan 16, 2015 $4.99N/A (N/A)0 .. 20,0000%00:00 (00:00)
131 Down To One Jan 7, 2016 N/AN/A (N/A)100,000 .. 200,0000%00:00 (00:00)
132 Insanity's Blade Dec 4, 2014 $5.99N/A (N/A)50,000 .. 100,0000%00:00 (00:00)
133 Raptor: Call of The Shadows - 2015 Edition Feb 13, 2015 $4.99N/A (N/A)50,000 .. 100,0000%00:00 (00:00)
134 TEMBO THE BADASS ELEPHANT Jul 21, 2015 $14.99N/A (N/A)50,000 .. 100,0000%00:00 (00:00)
135 ABRACA - Imagic Games Mar 31, 2016 $14.99N/A (N/A)0 .. 20,0000%00:00 (00:00)
136 Supercharged Robot VULKAISER Jun 4, 2015 $4.99N/A (N/A)20,000 .. 50,0000%00:00 (00:00)
137 On My Own Feb 26, 2016 $7.99N/A (N/A)20,000 .. 50,0000%00:00 (00:00)
138 Rad Rodgers: World One Dec 1, 2016 $19.99N/A (N/A/72%)0 .. 20,0000%00:00 (00:00)
139 Cobalt Feb 2, 2016 $14.99N/A (N/A/69%)20,000 .. 50,0000%00:00 (00:00)
140 Hocus Pocus May 5, 2014 $4.99N/A (N/A)20,000 .. 50,0000%00:00 (00:00)
141 Stargunner Nov 19, 1996 FreeN/A (N/A)20,000 .. 50,0000%00:00 (00:00)
142 Rise of the Triad: Dark War May 5, 2014 $6.99N/A (N/A)20,000 .. 50,0000%00:00 (00:00)
143 Star Trek : 25th Anniversary May 7, 2015 $9.99N/A (N/A)50,000 .. 100,0000%00:00 (00:00)
144 Mega Man Legacy Collection Aug 24, 2015 $14.99N/A (N/A/85%)200,000 .. 500,0001.59%00:46 (00:15)
145 Below Kryll Sep 7, 2015 $4.99N/A (N/A)0 .. 20,0000%00:00 (00:00)
146 METAL SLUG 2 Apr 14, 2016 $6.99N/A (N/A)100,000 .. 200,0005.26%00:52 (00:17)
147 SHOCK TROOPERS May 18, 2016 $7.99N/A (N/A)20,000 .. 50,0000%00:00 (00:00)
148 Super Mutant Alien Assault Jul 11, 2016 $9.99N/A (N/A)20,000 .. 50,0000%00:00 (00:00)
149 Grey Cubes May 15, 2015 N/AN/A (N/A)50,000 .. 100,0000%00:00 (00:00)
150 Kung Fury: Street Rage May 28, 2015 N/AN/A (N/A)200,000 .. 500,0000%00:00 (00:00)
151 ESCHATOS Sep 18, 2015 $14.99N/A (N/A)0 .. 20,0000%00:00 (00:00)
152 Cruel Arena Aug 18, 2015 $0.99N/A (N/A)200,000 .. 500,0000%00:00 (00:00)
153 Glass Wing Jun 24, 2015 FreeN/A (N/A)50,000 .. 100,0000%00:00 (00:00)
154 Zanzarah: The Hidden Portal Aug 20, 2015 $7.99N/A (N/A)200,000 .. 500,0000%00:00 (00:00)
155 Umihara Kawase Shun Nov 24, 2015 $11.99N/A (N/A)0 .. 20,0000%00:00 (00:00)
156 Mighty Gunvolt Sep 29, 2015 $4.99N/A (N/A)20,000 .. 50,0000%00:00 (00:00)
157 Rot Gut Jul 12, 2016 $1.99N/A (N/A)50,000 .. 100,0000%00:00 (00:00)
158 Twinsen's Little Big Adventure Classic Oct 14, 1994 $9.99N/A (N/A)50,000 .. 100,0000%00:00 (00:00)
159 Black & White Bushido Oct 2, 2015 $2.59N/A (N/A)20,000 .. 50,0000%00:00 (00:00)
160 Code of Princess Apr 14, 2016 $14.99N/A (N/A/53%)50,000 .. 100,0000%00:00 (00:00)
161 Men of Valor Feb 9, 2016 $9.99N/A (N/A/71%)50,000 .. 100,0000%00:00 (00:00)
162 Mytheon Jul 13, 2010 $9.99N/A (N/A)0 .. 20,0000%00:00 (00:00)
163 Emmerholt: Prologue Feb 14, 2017 FreeN/A (N/A)20,000 .. 50,0000%00:00 (00:00)
164 Skylar & Plux: Adventure On Clover Island May 19, 2017 N/AN/A (N/A)20,000 .. 50,0000%00:00 (00:00)
165 Demon's Crystals Apr 21, 2016 $2.99N/A (N/A)0 .. 20,0000%00:00 (00:00)
166 Spell Fighter VR Mar 1, 2016 FreeN/A (N/A)100,000 .. 200,0000%00:00 (00:00)
167 Fossil Echo Jul 8, 2016 $9.99N/A (N/A/61%)20,000 .. 50,0000%00:00 (00:00)
168 Zenodyne R May 29, 2016 $9.99N/A (N/A)0 .. 20,0000%00:00 (00:00)
169 Phantaruk Aug 16, 2016 $0.54N/A (N/A/53%)20,000 .. 50,0000%00:00 (00:00)
170 Yomawari: Night Alone Oct 25, 2016 $19.99N/A (N/A)50,000 .. 100,0000%00:00 (00:00)
171 Deformers Apr 20, 2017 N/AN/A (N/A)50,000 .. 100,0000%00:00 (00:00)
172 Ballistic Tanks Sep 20, 2016 $4.99N/A (N/A)50,000 .. 100,0000%00:00 (00:00)
173 Scrap Garden - The Day Before Oct 7, 2016 FreeN/A (N/A)200,000 .. 500,0000%00:00 (00:00)
174 THOTH Oct 7, 2016 $4.99N/A (N/A)50,000 .. 100,0000%00:00 (00:00)
175 Unbox: Newbie's Adventure Sep 5, 2016 $3.99N/A (N/A/68%)50,000 .. 100,0000%00:00 (00:00)
176 Overkill VR: Action Shooter FPS Mar 10, 2017 $19.99N/A (N/A)0 .. 20,0000%00:00 (00:00)
177 Deus Ex: Breach Jan 24, 2017 FreeN/A (N/A)100,000 .. 200,0000%00:00 (00:00)
178 Xmas Shooting - Scramble!! Dec 16, 2016 $4.99N/A (N/A)20,000 .. 50,0000%00:00 (00:00)
179 STAR WARS SHADOWS OF THE EMPIRE Feb 7, 2017 $5.99N/A (N/A)100,000 .. 200,0000%00:00 (00:00)
180 Dinosis Survival Jul 7, 2017 $2.49N/A (N/A)0 .. 20,0000%00:00 (00:00)
181 PLANETS OF WAR Jun 30, 2017 $0.49N/A (N/A)20,000 .. 50,0000%00:00 (00:00)

Geography of active players over time, share:

Access restricted.

This feature is only available to users with special access rights. Sorry.

If you want to proceed, you need to register or log in first and then back Steam Spy on Patreon. Look for Indie or Pro pledge.

Don't forget to use the same email as on Steam Spy!

If you've recently backed Steam Spy on Patreon, please note, that it might take around 15 minutes for your access rights to sync. In most cases you'll need to re-login on Steam Spy too.

Tags over time:

Access restricted.

This feature is only available to users with special access rights. Sorry.

If you want to proceed, you need to register or log in first and then back Steam Spy on Patreon. Look for Indie or Pro pledge.

Don't forget to use the same email as on Steam Spy!

If you've recently backed Steam Spy on Patreon, please note, that it might take around 15 minutes for your access rights to sync. In most cases you'll need to re-login on Steam Spy too.

Owners of this game also own:

Access restricted.

This feature is only available to users with special access rights. Sorry.

If you want to proceed, you need to register or log in first and then back Steam Spy on Patreon. Look for Indie or Pro pledge.

Don't forget to use the same email as on Steam Spy!

If you've recently backed Steam Spy on Patreon, please note, that it might take around 15 minutes for your access rights to sync. In most cases you'll need to re-login on Steam Spy too.

Playtime distribution:

Access restricted.

This feature is only available to users with special access rights. Sorry.

If you want to proceed, you need to register or log in first and then back Steam Spy on Patreon. Look for Indie or Pro pledge.

Don't forget to use the same email as on Steam Spy!

If you've recently backed Steam Spy on Patreon, please note, that it might take around 15 minutes for your access rights to sync. In most cases you'll need to re-login on Steam Spy too.

Playtime (2 weeks):

Access restricted.

This feature is only available to users with special access rights. Sorry.

If you want to proceed, you need to register or log in first and then back Steam Spy on Patreon. Look for Indie or Pro pledge.

Don't forget to use the same email as on Steam Spy!

If you've recently backed Steam Spy on Patreon, please note, that it might take around 15 minutes for your access rights to sync. In most cases you'll need to re-login on Steam Spy too.

User reviews:

Login required.

Please register or log in to see this information.